Time;durP1;ratioP1;P1;durP2;ratioP2;P2;SDS_P1;SDS_P2;PMS_P1;PMS_P2;Temp;Humidity;BMP_temperature;BMP_pressure;BME280_temperature;BME280_humidity;BME280_pressure;Samples;Min_cycle;Max_cycle;Signal;HPM_P1;HPM_P2
2023/06/20 00:00:17;;;;;;;5.50;4.97;;;21.60;10.80;;;;;;5003083;28;20181;-69
2023/06/20 00:02:43;;;;;;;6.17;5.60;;;21.60;11.60;;;;;;4992171;28;20204;-69
2023/06/20 00:05:08;;;;;;;5.57;4.73;;;21.60;11.80;;;;;;4992304;28;20870;-69
2023/06/20 00:07:34;;;;;;;5.90;5.30;;;21.60;11.20;;;;;;4992203;28;20671;-69
2023/06/20 00:10:00;;;;;;;7.83;6.13;;;21.70;11.10;;;;;;4992242;28;20200;-69
2023/06/20 00:12:25;;;;;;;6.13;5.53;;;21.70;10.50;;;;;;4991954;28;20612;-68
2023/06/20 00:14:51;;;;;;;6.03;5.40;;;21.70;11.10;;;;;;4992174;28;20204;-69
2023/06/20 00:17:16;;;;;;;9.30;5.50;;;21.70;11.00;;;;;;4992265;28;20231;-68
2023/06/20 00:19:42;;;;;;;4.83;4.40;;;21.60;11.00;;;;;;4995930;28;20183;-69
2023/06/20 00:22:07;;;;;;;5.57;5.03;;;21.60;11.40;;;;;;4995828;28;20334;-68
2023/06/20 00:24:33;;;;;;;5.20;4.73;;;21.70;11.20;;;;;;4995954;28;20177;-68
2023/06/20 00:27:00;;;;;;;6.40;4.70;;;21.70;11.50;;;;;;4995902;28;20664;-68
2023/06/20 00:29:26;;;;;;;8.00;5.00;;;21.70;12.70;;;;;;4995983;28;20172;-68
2023/06/20 00:31:51;;;;;;;10.87;4.50;;;21.50;14.60;;;;;;4995353;28;20811;-68
2023/06/20 00:34:17;;;;;;;7.23;5.67;;;21.40;16.40;;;;;;4995745;28;20650;-68
2023/06/20 00:36:42;;;;;;;6.73;6.03;;;21.10;19.90;;;;;;4995734;28;20598;-68
2023/06/20 00:39:08;;;;;;;7.00;5.87;;;20.70;22.70;;;;;;4995597;28;20658;-69
2023/06/20 00:41:33;;;;;;;7.40;6.37;;;20.50;26.00;;;;;;4995230;28;20216;-69
2023/06/20 00:44:03;;;;;;;8.90;5.73;;;20.20;27.30;;;;;;4995728;28;20180;-71
2023/06/20 00:46:40;;;;;;;8.97;5.77;;;20.10;27.80;;;;;;4995631;28;20185;-69
2023/06/20 00:49:08;;;;;;;7.93;6.50;;;19.90;29.40;;;;;;4995453;28;20415;-70
2023/06/20 00:51:36;;;;;;;6.03;5.07;;;19.80;32.60;;;;;;4995039;28;20497;-70
2023/06/20 00:54:02;;;;;;;9.83;6.20;;;19.80;33.30;;;;;;4995263;28;20485;-70
2023/06/20 00:56:28;;;;;;;7.40;6.03;;;19.70;34.60;;;;;;4995321;28;20510;-69
2023/06/20 00:58:54;;;;;;;7.27;5.60;;;19.70;34.70;;;;;;4995159;28;20911;-69
2023/06/20 01:01:21;;;;;;;12.53;6.67;;;19.60;35.70;;;;;;4995045;28;20482;-69
2023/06/20 01:03:51;;;;;;;6.83;5.50;;;19.50;35.80;;;;;;4994903;28;20709;-69
2023/06/20 01:06:43;;;;;;;8.43;5.80;;;19.50;37.20;;;;;;4995433;28;20860;-68
2023/06/20 01:09:21;;;;;;;8.50;6.33;;;19.50;38.60;;;;;;4994447;28;20439;-69
2023/06/20 01:12:05;;;;;;;6.07;5.40;;;19.50;39.40;;;;;;4993461;28;20528;-69
2023/06/20 01:14:59;;;;;;;5.87;5.23;;;19.60;39.50;;;;;;4995028;28;20833;-68
2023/06/20 01:17:45;;;;;;;9.87;5.93;;;19.50;40.00;;;;;;4995024;28;20449;-69
2023/06/20 01:20:19;;;;;;;6.83;4.87;;;19.50;39.40;;;;;;4994899;28;20806;-69
2023/06/20 01:23:08;;;;;;;7.60;4.97;;;19.50;39.40;;;;;;4994564;28;20460;-69
2023/06/20 01:26:01;;;;;;;4.30;3.90;;;19.50;38.90;;;;;;4993672;28;20945;-69
2023/06/20 01:28:43;;;;;;;7.73;4.80;;;19.40;37.90;;;;;;4994830;28;20482;-70
2023/06/20 01:31:12;;;;;;;12.03;5.10;;;19.40;39.30;;;;;;4993674;28;20554;-68
2023/06/20 01:34:08;;;;;;;8.63;5.27;;;19.40;40.00;;;;;;4994393;28;20851;-68
2023/06/20 01:36:39;;;;;;;7.37;5.70;;;19.40;40.70;;;;;;4993519;28;21023;-68
2023/06/20 01:39:17;;;;;;;6.20;4.03;;;19.50;41.10;;;;;;4994506;28;20775;-69
2023/06/20 01:41:44;;;;;;;5.83;4.73;;;19.40;41.30;;;;;;4994044;28;20960;-68
2023/06/20 01:44:14;;;;;;;4.97;4.13;;;19.40;42.10;;;;;;4994424;28;20426;-68
2023/06/20 01:46:39;;;;;;;5.00;4.20;;;19.30;40.50;;;;;;4994553;28;20415;-69
2023/06/20 01:49:06;;;;;;;6.30;3.73;;;19.20;39.10;;;;;;4994310;28;20423;-69
2023/06/20 01:51:33;;;;;;;4.83;4.00;;;19.10;40.70;;;;;;4993944;28;20628;-68
2023/06/20 01:54:02;;;;;;;4.77;3.77;;;18.90;40.70;;;;;;4994170;28;20408;-69
2023/06/20 01:56:30;;;;;;;4.90;3.77;;;18.80;40.90;;;;;;4994168;28;20919;-70
2023/06/20 01:58:59;;;;;;;4.07;3.03;;;18.80;42.00;;;;;;4994180;28;20774;-70
2023/06/20 02:01:25;;;;;;;4.40;3.10;;;18.70;40.50;;;;;;5012094;28;20447;-69
2023/06/20 02:03:55;;;;;;;3.37;2.60;;;18.70;41.00;;;;;;5013509;28;20423;-68
2023/06/20 02:06:22;;;;;;;4.73;3.23;;;18.60;40.60;;;;;;5013515;28;20493;-69
2023/06/20 02:08:50;;;;;;;4.37;2.80;;;18.60;40.20;;;;;;5013510;28;20972;-70
2023/06/20 02:11:17;;;;;;;4.80;3.10;;;18.60;40.50;;;;;;5013349;28;20550;-69
2023/06/20 02:13:44;;;;;;;3.33;2.67;;;18.60;41.40;;;;;;5013566;28;20419;-69
2023/06/20 02:16:11;;;;;;;3.67;2.50;;;18.60;40.70;;;;;;5013380;28;20426;-69
2023/06/20 02:18:37;;;;;;;3.03;2.20;;;18.60;38.60;;;;;;5013286;28;20442;-69
2023/06/20 02:21:10;;;;;;;3.20;2.60;;;18.70;38.70;;;;;;5013266;28;20526;-69
2023/06/20 02:23:37;;;;;;;14.93;3.10;;;18.70;37.90;;;;;;5013299;28;20426;-69
2023/06/20 02:26:09;;;;;;;3.20;2.00;;;18.80;38.50;;;;;;5013183;28;20430;-69
2023/06/20 02:28:48;;;;;;;3.60;2.70;;;18.70;38.50;;;;;;5013369;28;20419;-69
2023/06/20 02:31:20;;;;;;;4.43;2.07;;;18.80;37.50;;;;;;5012948;28;20588;-69
2023/06/20 02:33:49;;;;;;;3.10;2.47;;;18.80;37.50;;;;;;5012951;28;20411;-69
2023/06/20 02:36:17;;;;;;;5.17;2.77;;;18.90;37.40;;;;;;5013093;28;20412;-69
2023/06/20 02:38:43;;;;;;;2.70;2.20;;;18.90;37.30;;;;;;5013013;28;20447;-68
2023/06/20 02:41:08;;;;;;;3.03;2.10;;;18.80;38.20;;;;;;5012616;28;20548;-69
2023/06/20 02:43:34;;;;;;;4.03;2.23;;;18.90;36.00;;;;;;5012717;28;20203;-69
2023/06/20 02:46:30;;;;;;;3.40;2.13;;;18.90;35.90;;;;;;5012992;28;20187;-68
2023/06/20 02:49:17;;;;;;;3.47;2.20;;;18.90;37.10;;;;;;5012882;28;20179;-69
2023/06/20 02:51:50;;;;;;;2.70;1.97;;;18.90;38.30;;;;;;5012471;28;20870;-69
2023/06/20 02:54:48;;;;;;;2.30;1.87;;;19.00;36.80;;;;;;5011458;28;20423;-69
2023/06/20 02:57:18;;;;;;;3.10;2.30;;;19.00;38.90;;;;;;5004463;28;20916;-69
2023/06/20 02:59:48;;;;;;;3.00;2.00;;;18.90;36.60;;;;;;5008236;28;20411;-69
2023/06/20 03:02:17;;;;;;;4.07;2.27;;;18.90;37.20;;;;;;4993296;28;20526;-69
2023/06/20 03:04:44;;;;;;;4.10;2.97;;;19.00;37.50;;;;;;4992999;28;20514;-69
2023/06/20 03:07:10;;;;;;;3.77;2.53;;;19.10;38.40;;;;;;4992990;28;20911;-69
2023/06/20 03:09:36;;;;;;;4.10;2.20;;;19.10;38.60;;;;;;4993023;28;20508;-70
2023/06/20 03:12:02;;;;;;;3.93;2.40;;;19.10;38.40;;;;;;4992531;28;20440;-69
2023/06/20 03:14:30;;;;;;;3.43;2.00;;;19.00;38.10;;;;;;4992834;28;20396;-69
2023/06/20 03:16:55;;;;;;;4.67;2.27;;;19.10;37.00;;;;;;4992726;28;20415;-70
2023/06/20 03:19:21;;;;;;;3.50;2.37;;;19.10;36.00;;;;;;4992737;28;20415;-69
2023/06/20 03:21:47;;;;;;;5.93;2.33;;;19.00;34.20;;;;;;4992460;28;20201;-69
2023/06/20 03:24:12;;;;;;;2.73;1.73;;;19.10;33.70;;;;;;4992686;28;20243;-69
2023/06/20 03:26:38;;;;;;;2.30;1.53;;;19.10;30.30;;;;;;5000124;28;20176;-68
2023/06/20 03:29:03;;;;;;;5.63;1.40;;;19.00;30.80;;;;;;5012338;28;20536;-69
2023/06/20 03:31:29;;;;;;;2.37;1.37;;;19.00;30.60;;;;;;5011461;28;20218;-69
2023/06/20 03:33:54;;;;;;;3.17;1.90;;;18.90;30.40;;;;;;5011355;28;20249;-69
2023/06/20 03:36:20;;;;;;;2.90;1.90;;;18.90;33.60;;;;;;5012165;28;20642;-69
2023/06/20 03:38:45;;;;;;;2.83;1.30;;;18.90;33.60;;;;;;5012224;28;20545;-69
2023/06/20 03:41:11;;;;;;;3.20;1.63;;;18.90;33.40;;;;;;5012052;28;20305;-69
2023/06/20 03:43:36;;;;;;;2.53;1.30;;;19.00;33.70;;;;;;5011883;28;20541;-69
2023/06/20 03:46:02;;;;;;;3.03;1.70;;;19.00;32.60;;;;;;5012092;28;20669;-70
2023/06/20 03:48:27;;;;;;;3.50;1.90;;;19.00;29.00;;;;;;5012014;28;20601;-69
2023/06/20 03:50:53;;;;;;;3.43;1.80;;;19.00;29.70;;;;;;5011889;28;20587;-70
2023/06/20 03:53:18;;;;;;;3.00;1.50;;;18.90;32.40;;;;;;5013183;28;20650;-71
2023/06/20 03:55:44;;;;;;;2.80;2.23;;;18.90;31.70;;;;;;5016045;28;20669;-69
2023/06/20 03:58:10;;;;;;;5.73;2.70;;;18.80;32.70;;;;;;5014743;28;20660;-69
2023/06/20 04:00:35;;;;;;;4.87;2.47;;;18.80;32.30;;;;;;5015939;28;20215;-69
2023/06/20 04:03:01;;;;;;;4.10;2.50;;;18.80;32.60;;;;;;5016142;28;20179;-68
2023/06/20 04:05:27;;;;;;;2.80;2.30;;;18.80;32.40;;;;;;5016017;28;20552;-68
2023/06/20 04:07:53;;;;;;;3.33;1.93;;;18.80;31.80;;;;;;5016070;28;20172;-69
2023/06/20 04:10:19;;;;;;;3.70;2.40;;;18.80;31.50;;;;;;5015724;28;20548;-69
2023/06/20 04:12:45;;;;;;;5.00;2.03;;;18.80;33.10;;;;;;5015484;28;20183;-69
2023/06/20 04:15:10;;;;;;;3.77;2.30;;;18.80;31.30;;;;;;5014329;28;20445;-69
2023/06/20 04:17:40;;;;;;;2.37;1.67;;;18.80;31.50;;;;;;5015971;28;20175;-68
2023/06/20 04:20:12;;;;;;;2.70;1.90;;;18.90;31.10;;;;;;5015523;28;20259;-69
2023/06/20 04:22:42;;;;;;;4.50;2.70;;;18.90;30.20;;;;;;5013900;28;20815;-69
2023/06/20 04:25:08;;;;;;;5.47;1.90;;;18.90;29.80;;;;;;5015541;28;20446;-69
2023/06/20 04:27:34;;;;;;;3.60;1.87;;;19.00;29.00;;;;;;5015461;28;20987;-68
2023/06/20 04:29:59;;;;;;;3.53;2.00;;;19.10;29.10;;;;;;5015391;28;20552;-68
2023/06/20 04:32:25;;;;;;;5.20;2.30;;;19.10;29.30;;;;;;5015165;28;20203;-69
2023/06/20 04:34:52;;;;;;;4.60;2.60;;;19.30;28.90;;;;;;5015421;28;20176;-69
2023/06/20 04:37:18;;;;;;;4.83;2.30;;;19.40;29.20;;;;;;5015310;28;20519;-69
2023/06/20 04:39:44;;;;;;;3.60;2.33;;;19.50;28.30;;;;;;5015255;28;20784;-70
2023/06/20 04:42:09;;;;;;;3.33;2.47;;;19.50;27.70;;;;;;5040941;23;20498;-75
2023/06/20 04:44:36;;;;;;;4.10;3.33;;;19.60;27.30;;;;;;5021532;28;20180;-74
2023/06/20 04:47:02;;;;;;;5.10;2.73;;;19.70;27.50;;;;;;5021923;28;20280;-75
2023/06/20 04:49:28;;;;;;;3.60;2.57;;;19.80;26.50;;;;;;5018911;28;20510;-75
2023/06/20 04:51:53;;;;;;;4.47;2.33;;;19.80;26.40;;;;;;5025557;28;20473;-75
2023/06/20 04:54:22;;;;;;;3.83;2.80;;;20.00;25.20;;;;;;5037936;28;20171;-74
2023/06/20 04:56:47;;;;;;;4.80;3.20;;;20.10;24.30;;;;;;5040622;28;20194;-75
2023/06/20 04:59:13;;;;;;;3.37;2.50;;;20.10;24.10;;;;;;5038644;28;20422;-75
2023/06/20 05:01:38;;;;;;;4.67;2.63;;;20.20;23.20;;;;;;5040620;28;20672;-75
2023/06/20 05:04:04;;;;;;;5.97;3.30;;;20.30;23.00;;;;;;5038774;28;20236;-75
2023/06/20 05:06:30;;;;;;;3.33;2.20;;;20.40;22.80;;;;;;5039806;28;20243;-75
2023/06/20 05:08:56;;;;;;;6.30;3.50;;;20.40;22.40;;;;;;5039761;28;20179;-76
2023/06/20 05:11:22;;;;;;;4.30;3.03;;;20.50;21.10;;;;;;5039744;28;20749;-75
2023/06/20 05:13:47;;;;;;;3.63;2.50;;;20.70;21.40;;;;;;5038868;28;20179;-74
2023/06/20 05:16:13;;;;;;;4.40;3.10;;;20.80;21.50;;;;;;5035959;28;20183;-75
2023/06/20 05:18:38;;;;;;;4.13;3.07;;;21.00;21.20;;;;;;5035999;28;20206;-75
2023/06/20 05:21:04;;;;;;;5.50;3.90;;;21.30;19.00;;;;;;5035210;28;20261;-75
2023/06/20 05:23:30;;;;;;;3.33;2.60;;;21.40;18.30;;;;;;5037067;28;20218;-75
2023/06/20 05:25:55;;;;;;;4.07;3.10;;;21.50;18.10;;;;;;5035507;28;20184;-73
2023/06/20 05:28:21;;;;;;;4.97;3.10;;;21.70;17.70;;;;;;5034099;28;20252;-75
2023/06/20 05:30:47;;;;;;;5.50;3.67;;;21.80;16.70;;;;;;5035217;28;20202;-76
2023/06/20 05:33:12;;;;;;;4.70;2.60;;;22.00;16.20;;;;;;5036374;28;20211;-78
2023/06/20 05:35:38;;;;;;;3.80;3.20;;;22.30;15.10;;;;;;5039326;28;20211;-74
2023/06/20 05:38:03;;;;;;;5.80;2.63;;;22.50;14.40;;;;;;5041483;28;20206;-75
2023/06/20 05:40:29;;;;;;;6.03;3.37;;;22.80;14.00;;;;;;5041496;28;20237;-75
2023/06/20 05:42:55;;;;;;;5.40;3.00;;;23.20;13.40;;;;;;5038136;28;20261;-74
2023/06/20 05:45:21;;;;;;;4.43;3.17;;;25.30;10.10;;;;;;5040638;28;20855;-75
2023/06/20 05:47:47;;;;;;;4.10;3.07;;;28.10;3.30;;;;;;5038939;28;20183;-75
2023/06/20 05:50:13;;;;;;;6.77;3.80;;;29.90;1.00;;;;;;5035475;28;20450;-74
2023/06/20 05:52:38;;;;;;;5.23;4.83;;;32.00;1.00;;;;;;5040063;28;20195;-74
2023/06/20 05:55:05;;;;;;;7.97;4.63;;;32.70;1.00;;;;;;5037355;28;20182;-75
2023/06/20 05:57:30;;;;;;;6.50;5.30;;;33.80;1.00;;;;;;5038109;28;20245;-75
2023/06/20 05:59:56;;;;;;;6.00;5.10;;;34.60;1.00;;;;;;5038570;28;20418;-75
2023/06/20 06:02:22;;;;;;;6.53;4.80;;;33.90;1.00;;;;;;5039404;28;20195;-75
2023/06/20 06:04:48;;;;;;;7.53;4.83;;;35.00;1.00;;;;;;5040725;28;20182;-75
2023/06/20 06:07:14;;;;;;;5.40;5.00;;;36.20;1.00;;;;;;5040819;28;20415;-76
2023/06/20 06:09:40;;;;;;;6.20;5.70;;;36.70;1.00;;;;;;5041957;28;20448;-73
2023/06/20 06:12:06;;;;;;;6.40;5.80;;;37.20;1.00;;;;;;5040335;28;20213;-73
2023/06/20 06:14:32;;;;;;;5.60;5.20;;;37.70;1.00;;;;;;5035750;28;20167;-77
2023/06/20 06:16:58;;;;;;;6.37;5.87;;;38.00;1.00;;;;;;5033696;28;20874;-77
2023/06/20 06:19:24;;;;;;;11.73;6.50;;;38.50;1.00;;;;;;5034241;28;20406;-76
2023/06/20 06:21:50;;;;;;;6.70;6.10;;;38.80;1.00;;;;;;5033650;28;20325;-76
2023/06/20 06:24:15;;;;;;;9.87;6.10;;;39.00;1.00;;;;;;5032593;28;20180;-77
2023/06/20 06:26:41;;;;;;;5.80;5.40;;;38.70;1.00;;;;;;5034134;28;20183;-75
2023/06/20 06:29:07;;;;;;;6.93;6.37;;;39.70;1.00;;;;;;5034013;28;20179;-73
2023/06/20 06:31:34;;;;;;;5.57;5.17;;;40.70;1.00;;;;;;5033095;28;20222;-73
2023/06/20 06:34:02;;;;;;;7.67;5.40;;;40.70;1.00;;;;;;5032072;28;20184;-78
2023/06/20 06:36:32;;;;;;;6.13;5.63;;;40.80;1.00;;;;;;5033094;28;20418;-72
2023/06/20 06:38:59;;;;;;;9.13;5.80;;;41.20;1.00;;;;;;5031461;28;20417;-69
2023/06/20 06:41:24;;;;;;;6.30;5.90;;;41.10;1.00;;;;;;5032762;28;20450;-71
2023/06/20 06:43:50;;;;;;;5.93;5.40;;;41.20;1.00;;;;;;5012753;28;20840;-71
2023/06/20 06:46:16;;;;;;;5.53;5.13;;;42.20;1.00;;;;;;5008773;28;20176;-71
2023/06/20 06:48:41;;;;;;;6.10;5.63;;;41.70;1.00;;;;;;5009635;28;20274;-70
2023/06/20 06:51:07;;;;;;;6.83;6.13;;;42.30;1.00;;;;;;5009276;28;20313;-71
2023/06/20 06:53:33;;;;;;;6.27;5.67;;;42.10;1.00;;;;;;5008090;28;20184;-71
2023/06/20 06:55:58;;;;;;;5.90;5.30;;;41.60;1.00;;;;;;5008815;28;20603;-70
2023/06/20 06:58:24;;;;;;;8.90;5.80;;;41.90;1.00;;;;;;5008868;28;20184;-71
2023/06/20 07:00:50;;;;;;;5.50;5.00;;;41.90;1.00;;;;;;5022119;28;20194;-70
2023/06/20 07:03:16;;;;;;;6.20;5.60;;;42.00;1.00;;;;;;5028266;28;20195;-71
2023/06/20 07:05:41;;;;;;;7.27;6.07;;;42.30;1.00;;;;;;5015622;28;20437;-71
2023/06/20 07:08:07;;;;;;;6.27;5.77;;;42.70;1.00;;;;;;5008216;28;20567;-72
2023/06/20 07:10:33;;;;;;;7.10;6.20;;;42.70;1.00;;;;;;5010528;28;20527;-71
2023/06/20 07:12:58;;;;;;;6.07;5.57;;;43.10;1.00;;;;;;5027870;28;20569;-71
2023/06/20 07:15:24;;;;;;;7.00;6.13;;;43.00;1.00;;;;;;5026812;28;20179;-71
2023/06/20 07:17:49;;;;;;;6.07;5.67;;;42.10;1.00;;;;;;5028865;28;20186;-71
2023/06/20 07:20:17;;;;;;;5.53;5.03;;;41.60;1.00;;;;;;5026454;28;20195;-71
2023/06/20 07:22:42;;;;;;;6.60;6.00;;;41.20;1.00;;;;;;5019051;28;20308;-71
2023/06/20 07:25:08;;;;;;;6.00;5.53;;;41.00;1.00;;;;;;5018804;28;20477;-70
2023/06/20 07:27:34;;;;;;;6.10;5.60;;;40.60;1.00;;;;;;5026595;28;20715;-71
2023/06/20 07:29:59;;;;;;;6.90;6.23;;;40.30;1.00;;;;;;5027529;28;20191;-71
2023/06/20 07:32:25;;;;;;;6.93;6.10;;;39.90;1.00;;;;;;5028151;28;20210;-71
2023/06/20 07:34:51;;;;;;;6.37;5.90;;;39.50;1.00;;;;;;5020034;28;20692;-71
2023/06/20 07:37:16;;;;;;;7.00;6.00;;;38.20;1.00;;;;;;5006697;28;20190;-71
2023/06/20 07:39:43;;;;;;;6.43;5.93;;;37.70;1.00;;;;;;5008780;28;20270;-70
2023/06/20 07:42:09;;;;;;;6.97;6.37;;;38.10;1.00;;;;;;5005982;28;20229;-70
2023/06/20 07:44:35;;;;;;;7.10;6.50;;;38.80;1.00;;;;;;5005580;28;20481;-71
2023/06/20 07:47:00;;;;;;;7.43;6.73;;;38.60;1.00;;;;;;5003918;28;20435;-70
2023/06/20 07:49:28;;;;;;;8.97;8.20;;;38.10;1.00;;;;;;5011334;28;20219;-71
2023/06/20 07:51:53;;;;;;;6.07;5.67;;;37.50;1.00;;;;;;5027015;28;20207;-71
2023/06/20 07:54:19;;;;;;;7.33;6.60;;;37.30;1.00;;;;;;5028224;28;20430;-70
2023/06/20 07:56:44;;;;;;;6.40;5.90;;;37.60;1.00;;;;;;5027521;28;20206;-71
2023/06/20 07:59:10;;;;;;;6.63;6.03;;;38.00;1.00;;;;;;5026405;28;20553;-70
2023/06/20 08:01:35;;;;;;;7.87;7.07;;;37.80;1.00;;;;;;5027853;28;20199;-71
2023/06/20 08:04:01;;;;;;;7.40;6.70;;;37.00;1.00;;;;;;5027491;28;20187;-70
2023/06/20 08:06:27;;;;;;;7.03;6.43;;;37.50;1.00;;;;;;5024564;28;20195;-70
2023/06/20 08:08:52;;;;;;;6.60;6.00;;;37.60;1.00;;;;;;5028176;28;20195;-70
2023/06/20 08:11:22;;;;;;;7.27;6.60;;;38.50;1.00;;;;;;5027061;28;20589;-70
2023/06/20 08:13:50;;;;;;;11.60;6.43;;;38.60;1.00;;;;;;5027196;28;20187;-70
2023/06/20 08:16:16;;;;;;;10.03;7.10;;;38.90;1.00;;;;;;5028206;28;20912;-70
2023/06/20 08:18:42;;;;;;;8.70;7.30;;;39.00;1.00;;;;;;5029707;28;20459;-70
2023/06/20 08:21:07;;;;;;;8.10;7.40;;;39.30;1.00;;;;;;5031286;28;20234;-70
2023/06/20 08:23:33;;;;;;;13.43;7.90;;;39.90;1.00;;;;;;5011228;28;20657;-70
2023/06/20 08:25:59;;;;;;;11.77;7.00;;;40.80;1.00;;;;;;5007395;28;20187;-70
2023/06/20 08:28:25;;;;;;;9.33;7.63;;;41.40;1.00;;;;;;5007652;28;20713;-70
2023/06/20 08:30:51;;;;;;;8.53;7.83;;;42.10;1.00;;;;;;5008284;28;20223;-70
2023/06/20 08:33:20;;;;;;;6.73;6.13;;;41.40;1.00;;;;;;5005662;28;20442;-70
2023/06/20 08:35:46;;;;;;;9.03;8.03;;;41.90;1.00;;;;;;5007241;28;20473;-70
2023/06/20 08:38:12;;;;;;;20.37;8.00;;;43.10;1.00;;;;;;5008480;28;20462;-70
2023/06/20 08:40:38;;;;;;;9.73;8.30;;;42.50;1.00;;;;;;5008588;28;20462;-70
2023/06/20 08:43:04;;;;;;;8.23;7.20;;;43.40;1.00;;;;;;5011764;28;20242;-70
2023/06/20 08:45:30;;;;;;;7.70;7.10;;;43.30;1.00;;;;;;5015016;28;20271;-70
2023/06/20 08:47:58;;;;;;;8.20;7.40;;;42.80;1.00;;;;;;5015187;28;20514;-70
2023/06/20 08:50:28;;;;;;;8.90;8.27;;;42.80;1.00;;;;;;5014995;28;20204;-70
2023/06/20 08:52:55;;;;;;;12.00;9.07;;;42.40;1.00;;;;;;5014520;28;20442;-69
2023/06/20 08:55:22;;;;;;;9.20;7.00;;;42.80;1.00;;;;;;5015018;28;20415;-70
2023/06/20 08:57:48;;;;;;;13.33;8.53;;;43.40;1.00;;;;;;5014878;28;20522;-70
2023/06/20 09:00:20;;;;;;;7.77;7.10;;;43.50;1.00;;;;;;5023377;28;20428;-70
2023/06/20 09:02:49;;;;;;;7.57;6.83;;;43.80;1.00;;;;;;5033988;28;20446;-70
2023/06/20 09:05:15;;;;;;;7.80;6.93;;;44.10;1.00;;;;;;5034558;28;20433;-71
2023/06/20 09:07:41;;;;;;;7.03;6.50;;;42.30;1.00;;;;;;5034876;28;20418;-71
2023/06/20 09:10:09;;;;;;;6.33;5.83;;;41.60;1.00;;;;;;5035083;28;20183;-70
2023/06/20 09:12:56;;;;;;;7.00;6.47;;;41.90;1.00;;;;;;5034250;28;20442;-71
2023/06/20 09:15:27;;;;;;;7.90;7.30;;;41.30;1.00;;;;;;5033150;28;20852;-70
2023/06/20 09:17:59;;;;;;;8.50;7.70;;;40.60;1.00;;;;;;5034396;28;20418;-70
2023/06/20 09:20:27;;;;;;;7.40;6.80;;;39.80;1.00;;;;;;5034611;28;20426;-75
2023/06/20 09:22:52;;;;;;;9.87;8.97;;;38.70;1.00;;;;;;5032939;28;20810;-70
2023/06/20 09:25:25;;;;;;;8.10;7.50;;;36.70;1.00;;;;;;5034185;28;20417;-70
2023/06/20 09:27:52;;;;;;;7.57;7.00;;;35.30;1.00;;;;;;5033943;28;20198;-71
2023/06/20 09:30:18;;;;;;;8.07;7.27;;;34.20;1.00;;;;;;5034289;28;20531;-70
2023/06/20 09:32:44;;;;;;;6.83;6.20;;;33.30;1.00;;;;;;5033986;28;20426;-70
2023/06/20 09:35:16;;;;;;;9.13;8.30;;;32.70;1.00;;;;;;5033630;28;20480;-70
2023/06/20 09:38:02;;;;;;;7.80;7.10;;;32.50;1.00;;;;;;5033818;28;20206;-70
2023/06/20 09:40:27;;;;;;;7.43;6.77;;;32.30;1.00;;;;;;5034013;28;20422;-69
2023/06/20 09:42:56;;;;;;;6.70;6.10;;;31.60;1.00;;;;;;5033551;28;20561;-70
2023/06/20 09:45:22;;;;;;;7.80;7.20;;;31.40;1.00;;;;;;5033911;28;20214;-70
2023/06/20 09:47:51;;;;;;;7.40;6.90;;;31.40;1.00;;;;;;5033366;28;20786;-70
2023/06/20 09:50:20;;;;;;;7.57;6.83;;;31.20;1.00;;;;;;5033156;28;20639;-70
2023/06/20 09:53:00;;;;;;;6.10;5.63;;;31.30;1.00;;;;;;5033221;28;20430;-70
2023/06/20 09:55:26;;;;;;;7.10;6.50;;;31.10;1.00;;;;;;5033585;28;20444;-70
2023/06/20 09:57:58;;;;;;;6.77;6.17;;;31.00;1.00;;;;;;5033616;28;20480;-70
2023/06/20 10:00:26;;;;;;;7.17;6.57;;;30.90;1.00;;;;;;5033215;28;20766;-70
2023/06/20 10:02:53;;;;;;;7.40;6.70;;;30.90;1.00;;;;;;5032867;28;20434;-70
2023/06/20 10:05:20;;;;;;;7.30;6.80;;;31.00;1.00;;;;;;5033300;28;20433;-70
2023/06/20 10:07:48;;;;;;;7.53;6.87;;;31.30;1.00;;;;;;5033076;28;20422;-70
2023/06/20 10:10:17;;;;;;;6.97;6.43;;;31.50;1.00;;;;;;5032947;28;20465;-70
2023/06/20 10:12:48;;;;;;;8.70;6.67;;;31.60;1.00;;;;;;5032636;28;20469;-69
2023/06/20 10:15:14;;;;;;;7.40;6.80;;;31.40;1.00;;;;;;5033075;28;20410;-69
2023/06/20 10:17:46;;;;;;;6.43;5.83;;;31.10;1.00;;;;;;5032954;28;20961;-69
2023/06/20 10:20:31;;;;;;;7.30;6.57;;;31.40;1.00;;;;;;5032822;28;20417;-69
2023/06/20 10:23:00;;;;;;;8.80;6.63;;;31.50;1.00;;;;;;5032499;28;20509;-70
2023/06/20 10:25:27;;;;;;;7.43;6.83;;;31.60;1.00;;;;;;5031602;28;20418;-70
2023/06/20 10:27:56;;;;;;;7.87;7.20;;;31.60;1.00;;;;;;5032759;28;20414;-70
2023/06/20 10:30:46;;;;;;;7.63;6.77;;;31.90;1.00;;;;;;5032427;28;20458;-70
2023/06/20 10:33:13;;;;;;;7.43;6.93;;;32.00;1.00;;;;;;5031393;28;20430;-70
2023/06/20 10:35:57;;;;;;;8.60;7.90;;;32.00;1.00;;;;;;5032518;28;20491;-70
2023/06/20 10:38:26;;;;;;;7.13;6.53;;;32.20;1.00;;;;;;5031374;28;20781;-70
2023/06/20 10:41:23;;;;;;;7.30;6.70;;;32.00;1.00;;;;;;5031340;28;20453;-70
2023/06/20 10:43:49;;;;;;;7.30;6.63;;;32.10;1.00;;;;;;5033069;28;20418;-70
2023/06/20 10:46:17;;;;;;;6.37;5.93;;;31.70;1.00;;;;;;5031118;28;20931;-70
2023/06/20 10:48:43;;;;;;;7.90;7.17;;;31.90;1.00;;;;;;5032764;28;20414;-70
2023/06/20 10:51:09;;;;;;;10.87;6.80;;;32.10;1.00;;;;;;5032433;28;20457;-69
2023/06/20 10:53:35;;;;;;;8.83;7.40;;;32.20;1.00;;;;;;5032649;28;20410;-69
2023/06/20 10:56:01;;;;;;;6.87;6.37;;;32.20;1.00;;;;;;5032553;28;20830;-69
2023/06/20 10:58:26;;;;;;;7.57;7.07;;;32.20;1.00;;;;;;5032495;28;20259;-70
2023/06/20 11:00:53;;;;;;;6.70;6.20;;;32.20;1.00;;;;;;5032502;28;20190;-70
2023/06/20 11:03:20;;;;;;;7.83;6.33;;;32.00;1.00;;;;;;5032202;28;20187;-70
2023/06/20 11:05:50;;;;;;;7.60;6.83;;;31.90;1.00;;;;;;5032276;28;20474;-70
2023/06/20 11:08:25;;;;;;;8.23;7.53;;;32.20;1.00;;;;;;5032516;28;20418;-70
2023/06/20 11:10:50;;;;;;;11.80;7.50;;;32.20;1.00;;;;;;5032640;28;20527;-70
2023/06/20 11:13:16;;;;;;;8.90;7.23;;;32.40;1.00;;;;;;5032334;28;20430;-70
2023/06/20 11:15:42;;;;;;;11.43;7.30;;;32.60;1.00;;;;;;5032360;28;20246;-71
2023/06/20 11:18:09;;;;;;;11.60;8.87;;;32.60;1.00;;;;;;5032200;28;20561;-70
2023/06/20 11:20:39;;;;;;;7.23;6.70;;;33.00;1.00;;;;;;5032432;28;20598;-70
2023/06/20 11:23:06;;;;;;;7.50;6.93;;;33.00;1.00;;;;;;5032083;28;20444;-70
2023/06/20 11:25:36;;;;;;;6.87;6.37;;;32.70;1.00;;;;;;5030829;28;20425;-71
2023/06/20 11:28:09;;;;;;;7.20;6.50;;;32.30;1.00;;;;;;5032168;28;20441;-70
2023/06/20 11:30:37;;;;;;;8.27;7.57;;;32.30;1.00;;;;;;5030611;28;20461;-70
2023/06/20 11:33:11;;;;;;;7.63;6.77;;;32.30;1.00;;;;;;5031699;28;20479;-70
2023/06/20 11:35:42;;;;;;;7.43;6.63;;;32.50;1.00;;;;;;5032083;28;20421;-70
2023/06/20 11:38:13;;;;;;;8.00;7.40;;;32.60;1.00;;;;;;5032125;28;20406;-70
2023/06/20 11:40:39;;;;;;;7.87;7.20;;;32.70;1.00;;;;;;5030840;28;20410;-70
2023/06/20 11:43:05;;;;;;;9.50;8.80;;;33.10;1.00;;;;;;5031485;28;20468;-67
2023/06/20 11:45:32;;;;;;;8.63;7.83;;;33.40;1.00;;;;;;5031775;28;20225;-70
2023/06/20 11:48:12;;;;;;;7.27;6.57;;;33.30;1.00;;;;;;5031701;28;20417;-70
2023/06/20 11:50:41;;;;;;;7.17;6.47;;;33.40;1.00;;;;;;5031442;28;20480;-70
2023/06/20 11:53:25;;;;;;;8.93;7.37;;;33.10;1.00;;;;;;5031664;28;20426;-70
2023/06/20 11:55:53;;;;;;;6.90;6.40;;;33.20;1.00;;;;;;5031799;28;20958;-70
2023/06/20 11:58:19;;;;;;;7.83;7.23;;;33.10;1.00;;;;;;5030346;28;20414;-71
2023/06/20 12:00:47;;;;;;;8.47;7.63;;;33.00;1.00;;;;;;5030279;28;20425;-71
2023/06/20 12:03:18;;;;;;;8.60;7.67;;;32.90;1.00;;;;;;5030139;28;20450;-70
2023/06/20 12:05:44;;;;;;;6.97;6.37;;;33.00;1.00;;;;;;5030284;28;20421;-71
2023/06/20 12:08:09;;;;;;;8.60;7.90;;;33.40;1.00;;;;;;5031531;28;20417;-70
2023/06/20 12:10:57;;;;;;;8.80;8.00;;;33.40;1.00;;;;;;5031590;28;20461;-70
2023/06/20 12:13:22;;;;;;;8.33;7.60;;;33.60;1.00;;;;;;5031258;28;20195;-70
2023/06/20 12:15:48;;;;;;;7.90;7.40;;;33.60;1.00;;;;;;5035318;28;20460;-70
2023/06/20 12:18:14;;;;;;;7.50;6.70;;;33.60;1.00;;;;;;5035424;28;20225;-70
2023/06/20 12:20:39;;;;;;;7.50;6.90;;;33.60;1.00;;;;;;5035162;28;20184;-70
2023/06/20 12:23:05;;;;;;;8.43;7.10;;;33.60;1.00;;;;;;5035174;28;20207;-70
2023/06/20 12:25:31;;;;;;;8.20;7.20;;;33.50;1.00;;;;;;5035319;28;20269;-70
2023/06/20 12:27:58;;;;;;;8.67;7.40;;;33.30;1.00;;;;;;5033644;28;20550;-70
2023/06/20 12:30:25;;;;;;;8.00;7.40;;;33.30;1.00;;;;;;5032806;28;20461;-70
2023/06/20 12:32:51;;;;;;;7.90;7.30;;;33.10;1.00;;;;;;5015337;28;20438;-74
2023/06/20 12:35:17;;;;;;;8.80;8.00;;;33.20;1.00;;;;;;5015108;28;20457;-74
2023/06/20 12:37:42;;;;;;;8.80;7.90;;;33.10;1.00;;;;;;5024510;28;20192;-74
2023/06/20 12:40:09;;;;;;;8.60;7.90;;;32.90;1.00;;;;;;5035067;28;20523;-72
2023/06/20 12:42:36;;;;;;;8.10;7.40;;;32.90;1.00;;;;;;5033726;28;20689;-74
2023/06/20 12:45:02;;;;;;;8.73;8.00;;;33.00;1.00;;;;;;5033560;28;20421;-74
2023/06/20 12:47:28;;;;;;;10.33;8.90;;;32.90;1.00;;;;;;5033652;28;20429;-74
2023/06/20 12:49:56;;;;;;;7.70;7.00;;;33.00;1.00;;;;;;5021862;28;20439;-74
2023/06/20 12:52:22;;;;;;;8.03;7.33;;;33.10;1.00;;;;;;5013538;28;20466;-74
2023/06/20 12:54:47;;;;;;;8.63;7.93;;;33.40;1.00;;;;;;5021873;28;20429;-73
2023/06/20 12:57:13;;;;;;;7.73;7.13;;;33.60;1.00;;;;;;5032968;28;20187;-73